createdAt,value
2024-04-19T00:01:40.678Z,4.40
2024-04-19T00:04:07.739Z,4.40
2024-04-19T00:06:35.117Z,4.40
2024-04-19T00:09:02.591Z,4.40
2024-04-19T00:11:29.701Z,4.40
2024-04-19T00:13:56.726Z,4.40
2024-04-19T00:16:23.904Z,4.40
2024-04-19T00:18:51.023Z,4.40
2024-04-19T00:21:18.125Z,4.40
2024-04-19T00:23:45.017Z,4.40
2024-04-19T00:26:11.939Z,4.40
2024-04-19T00:28:39.369Z,4.40
2024-04-19T00:31:06.842Z,4.40
2024-04-19T00:33:34.023Z,4.40
2024-04-19T00:36:01.038Z,4.30
2024-04-19T00:38:27.908Z,4.30
2024-04-19T00:40:56.263Z,4.30
2024-04-19T00:43:23.319Z,4.40
2024-04-19T00:45:52.147Z,4.30
2024-04-19T00:48:21.492Z,4.40
2024-04-19T00:51:01.173Z,4.40
2024-04-19T00:53:31.790Z,4.40
2024-04-19T00:56:00.954Z,4.40
2024-04-19T00:58:29.422Z,4.50
2024-04-19T01:01:03.096Z,4.40
2024-04-19T01:03:30.566Z,4.50
2024-04-19T01:05:57.506Z,4.50
2024-04-19T01:08:25.399Z,4.50
2024-04-19T01:10:53.113Z,4.60
2024-04-19T01:13:20.364Z,4.60
2024-04-19T01:15:49.426Z,4.60
2024-04-19T01:18:16.969Z,4.70
2024-04-19T01:20:44.886Z,4.60
2024-04-19T01:23:13.804Z,4.70
2024-04-19T01:25:42.635Z,4.70
2024-04-19T01:28:11.560Z,4.70
2024-04-19T01:30:41.921Z,4.80
2024-04-19T01:33:08.947Z,4.80
2024-04-19T01:35:36.295Z,4.80
2024-04-19T01:38:03.267Z,4.80
2024-04-19T01:40:30.194Z,4.80
2024-04-19T01:42:57.029Z,4.90
2024-04-19T01:45:23.918Z,4.90
2024-04-19T01:47:50.797Z,4.90
2024-04-19T01:50:17.646Z,4.90
2024-04-19T01:52:44.418Z,4.90
2024-04-19T01:55:11.229Z,5.00
2024-04-19T01:57:38.036Z,5.00
2024-04-19T02:00:05.753Z,5.00
2024-04-19T02:02:32.555Z,5.10
2024-04-19T02:04:59.694Z,5.10
2024-04-19T02:07:26.518Z,5.20
2024-04-19T02:09:54.482Z,5.20
2024-04-19T02:12:21.522Z,5.20
2024-04-19T02:14:48.444Z,5.20
2024-04-19T02:17:15.391Z,5.30
2024-04-19T02:19:43.440Z,5.30
2024-04-19T02:22:10.337Z,5.30
2024-04-19T02:24:37.885Z,5.30
2024-04-19T02:27:07.650Z,5.20
2024-04-19T02:29:53.159Z,5.20
2024-04-19T02:32:19.965Z,5.20
2024-04-19T02:34:48.131Z,5.20
2024-04-19T02:37:15.317Z,5.30
2024-04-19T02:39:42.183Z,5.30
2024-04-19T02:42:08.965Z,5.30
2024-04-19T02:44:35.772Z,5.30
2024-04-19T02:47:02.706Z,5.30
2024-04-19T02:49:29.576Z,5.20
2024-04-19T02:51:56.441Z,5.20
2024-04-19T02:54:23.882Z,5.10
2024-04-19T02:56:50.735Z,5.10
2024-04-19T02:59:17.505Z,5.10
2024-04-19T03:01:44.331Z,5.00
2024-04-19T03:04:11.242Z,4.90
2024-04-19T03:06:38.115Z,4.80
2024-04-19T03:09:05.016Z,4.80
2024-04-19T03:11:31.835Z,4.80
2024-04-19T03:13:58.894Z,4.80
2024-04-19T03:16:25.693Z,4.80
2024-04-19T03:18:52.610Z,4.80
2024-04-19T03:21:19.397Z,4.80
2024-04-19T03:23:46.239Z,4.80
2024-04-19T03:26:13.012Z,4.70
2024-04-19T03:28:39.851Z,4.70
2024-04-19T03:31:09.954Z,4.60
2024-04-19T03:33:36.907Z,4.60
2024-04-19T03:36:05.955Z,4.60
2024-04-19T03:38:32.785Z,4.70
2024-04-19T03:40:59.607Z,4.70
2024-04-19T03:43:33.851Z,4.70
2024-04-19T03:46:01.851Z,4.70
2024-04-19T03:48:28.806Z,4.70
2024-04-19T03:50:55.718Z,4.80
2024-04-19T03:53:22.529Z,4.80
2024-04-19T03:55:49.365Z,4.90
2024-04-19T03:58:16.181Z,5.00
2024-04-19T04:00:43.386Z,5.10
2024-04-19T04:03:10.573Z,5.10
2024-04-19T04:05:37.424Z,5.20
2024-04-19T04:08:04.552Z,5.20
2024-04-19T04:10:31.292Z,5.30
2024-04-19T04:12:58.499Z,5.30
2024-04-19T04:15:25.672Z,5.40
2024-04-19T04:17:52.830Z,5.50
2024-04-19T04:20:19.729Z,5.50
2024-04-19T04:22:46.511Z,5.60
2024-04-19T04:25:13.276Z,5.60
2024-04-19T04:27:40.071Z,5.70
2024-04-19T04:30:07.671Z,5.70
2024-04-19T04:32:34.506Z,5.70
2024-04-19T04:35:01.372Z,5.70
2024-04-19T04:37:30.005Z,5.70
2024-04-19T04:39:56.937Z,5.70
2024-04-19T04:42:23.863Z,5.70
2024-04-19T04:44:50.713Z,5.70
2024-04-19T04:47:17.664Z,5.70
2024-04-19T04:49:44.403Z,5.80
2024-04-19T04:52:11.255Z,5.80
2024-04-19T04:54:38.060Z,5.80
2024-04-19T04:57:09.252Z,5.80
2024-04-19T04:59:36.519Z,5.80
2024-04-19T05:02:04.892Z,5.80
2024-04-19T05:04:31.886Z,5.80
2024-04-19T05:06:58.875Z,5.80
2024-04-19T05:09:25.742Z,5.80
2024-04-19T05:11:52.598Z,5.90
2024-04-19T05:14:19.455Z,5.90
2024-04-19T05:16:46.309Z,6.00
2024-04-19T05:19:13.199Z,6.00
2024-04-19T05:21:40.081Z,6.00
2024-04-19T05:24:07.641Z,5.90
2024-04-19T05:26:34.545Z,6.00
2024-04-19T05:29:01.364Z,6.00
2024-04-19T05:31:28.132Z,6.00
2024-04-19T05:33:55.211Z,6.10
2024-04-19T05:36:22.035Z,6.10
2024-04-19T05:38:48.847Z,6.10
2024-04-19T05:41:15.798Z,6.10
2024-04-19T05:43:42.660Z,6.10
2024-04-19T05:46:09.541Z,6.10
2024-04-19T05:48:36.466Z,6.20
2024-04-19T05:51:03.456Z,6.20
2024-04-19T05:53:30.294Z,6.30
2024-04-19T05:55:57.070Z,6.30
2024-04-19T05:58:25.469Z,6.30
2024-04-19T06:00:52.461Z,6.40
2024-04-19T06:03:19.657Z,6.40
2024-04-19T06:05:46.612Z,6.50
2024-04-19T06:08:13.892Z,6.50
2024-04-19T06:10:41.821Z,6.50
2024-04-19T06:13:08.837Z,6.50
2024-04-19T06:15:38.274Z,6.50
2024-04-19T06:18:05.444Z,6.50
2024-04-19T06:20:32.473Z,6.60
2024-04-19T06:22:59.397Z,6.60
2024-04-19T06:25:26.268Z,6.70
2024-04-19T06:27:53.175Z,6.70
2024-04-19T06:30:20.089Z,6.70
2024-04-19T06:32:46.943Z,6.80
2024-04-19T06:35:17.407Z,6.80
2024-04-19T06:37:44.169Z,6.90
2024-04-19T06:40:11.074Z,7.00
2024-04-19T06:42:38.126Z,7.10
2024-04-19T06:45:05.438Z,7.10
2024-04-19T06:47:35.647Z,7.10
2024-04-19T06:50:02.466Z,7.20
2024-04-19T06:52:29.642Z,7.30
2024-04-19T06:54:56.459Z,7.40
2024-04-19T06:57:23.339Z,7.40
2024-04-19T06:59:50.530Z,7.50
2024-04-19T07:02:18.308Z,7.50
2024-04-19T07:04:45.356Z,7.50
2024-04-19T07:07:12.442Z,7.60
2024-04-19T07:09:39.264Z,7.60
2024-04-19T07:12:06.490Z,7.70
2024-04-19T07:14:33.234Z,7.70
2024-04-19T07:17:00.090Z,7.70
2024-04-19T07:19:26.961Z,7.80
2024-04-19T07:21:53.795Z,7.90
2024-04-19T07:24:20.628Z,8.10
2024-04-19T07:26:47.900Z,8.20
2024-04-19T07:29:16.889Z,8.40
2024-04-19T07:31:44.121Z,8.50
2024-04-19T07:34:11.013Z,8.60
2024-04-19T07:36:37.882Z,8.80
2024-04-19T07:39:04.809Z,9.00
2024-04-19T07:41:31.631Z,9.00
2024-04-19T07:44:01.421Z,9.00
2024-04-19T07:46:29.127Z,9.00
2024-04-19T07:48:56.250Z,9.00
2024-04-19T07:51:23.399Z,9.20
2024-04-19T07:53:50.486Z,9.20
2024-04-19T07:56:17.319Z,9.30
2024-04-19T07:58:45.854Z,9.40
2024-04-19T08:01:12.983Z,9.40
2024-04-19T08:03:40.602Z,9.30
2024-04-19T08:06:07.914Z,9.10
2024-04-19T08:08:34.826Z,8.80
2024-04-19T08:11:02.826Z,8.70
2024-04-19T08:13:29.638Z,8.60
2024-04-19T08:15:56.625Z,8.30
2024-04-19T08:18:23.538Z,8.30
2024-04-19T08:20:50.340Z,8.20
2024-04-19T08:23:18.497Z,8.20
2024-04-19T08:25:46.065Z,8.20
2024-04-19T08:28:12.818Z,8.20
2024-04-19T08:30:39.905Z,8.20
2024-04-19T08:33:07.074Z,8.20
2024-04-19T08:35:33.929Z,8.10
2024-04-19T08:38:01.413Z,8.00
2024-04-19T08:40:30.335Z,8.00
2024-04-19T08:43:00.596Z,7.90
2024-04-19T08:45:27.921Z,8.00
2024-04-19T08:47:55.416Z,8.00
2024-04-19T08:50:23.084Z,8.10
2024-04-19T08:53:09.795Z,8.10
2024-04-19T08:55:39.976Z,8.10
2024-04-19T08:58:07.568Z,7.90
2024-04-19T09:00:34.413Z,7.90
2024-04-19T09:03:01.509Z,7.80
2024-04-19T09:05:29.854Z,7.80
2024-04-19T09:07:56.872Z,7.80
2024-04-19T09:10:23.839Z,7.70
2024-04-19T09:12:50.987Z,7.70
2024-04-19T09:15:18.602Z,7.70
2024-04-19T09:17:47.721Z,7.70
2024-04-19T09:20:14.582Z,7.60
2024-04-19T09:22:41.486Z,7.70
2024-04-19T09:25:08.316Z,7.70
2024-04-19T09:27:36.350Z,7.70
2024-04-19T09:30:03.470Z,7.70
2024-04-19T09:32:30.424Z,7.70
2024-04-19T09:34:57.283Z,7.80
2024-04-19T09:37:25.954Z,7.80
2024-04-19T09:39:53.116Z,7.80
2024-04-19T09:42:23.145Z,7.80
2024-04-19T09:44:51.675Z,7.90
2024-04-19T09:47:20.332Z,8.00
2024-04-19T09:49:48.118Z,8.00
2024-04-19T09:52:25.868Z,8.10
2024-04-19T09:55:24.018Z,8.20
2024-04-19T09:57:51.908Z,8.20
2024-04-19T10:00:20.166Z,8.30
2024-04-19T10:02:47.348Z,8.30
2024-04-19T10:05:14.745Z,8.30
2024-04-19T10:07:43.182Z,8.40
2024-04-19T10:10:10.063Z,8.40
2024-04-19T10:12:40.766Z,8.60
2024-04-19T10:15:12.820Z,8.60
2024-04-19T10:17:40.144Z,8.50
2024-04-19T10:20:09.720Z,8.50
2024-04-19T10:22:36.527Z,8.40
2024-04-19T10:25:03.805Z,8.40
2024-04-19T10:27:33.611Z,8.40
2024-04-19T10:30:04.552Z,8.40
2024-04-19T10:32:31.398Z,8.50
2024-04-19T10:34:58.605Z,8.50
2024-04-19T10:37:25.912Z,8.50
2024-04-19T10:39:52.785Z,8.50
2024-04-19T10:42:21.807Z,8.60
2024-04-19T10:44:50.087Z,8.80
2024-04-19T10:47:17.826Z,8.80
2024-04-19T10:49:48.487Z,8.80
2024-04-19T10:52:19.994Z,8.80
2024-04-19T10:54:46.796Z,8.80
2024-04-19T10:57:14.154Z,8.90
2024-04-19T10:59:40.891Z,8.80
2024-04-19T11:02:08.406Z,8.90
2024-04-19T11:04:35.327Z,8.90
2024-04-19T11:07:02.332Z,8.90
2024-04-19T11:09:30.049Z,8.90
2024-04-19T11:11:57.565Z,8.90
2024-04-19T11:14:24.797Z,9.00
2024-04-19T11:16:51.832Z,9.00
2024-04-19T11:19:19.413Z,9.10
2024-04-19T11:21:46.832Z,9.10
2024-04-19T11:24:13.911Z,9.00
2024-04-19T11:26:40.864Z,9.00
2024-04-19T11:29:10.663Z,9.00
2024-04-19T11:31:40.541Z,9.10
2024-04-19T11:34:07.592Z,9.30
2024-04-19T11:36:35.930Z,9.40
2024-04-19T11:39:03.157Z,9.50
2024-04-19T11:41:30.343Z,9.50
2024-04-19T11:43:59.695Z,9.40
2024-04-19T11:46:29.718Z,9.30
2024-04-19T11:49:00.476Z,9.20
2024-04-19T11:51:27.555Z,9.20
2024-04-19T11:53:54.527Z,9.20
2024-04-19T11:56:21.368Z,9.10
2024-04-19T11:58:53.543Z,9.00
2024-04-19T12:01:20.885Z,9.00
2024-04-19T12:03:47.850Z,9.00
2024-04-19T12:06:15.392Z,9.10
2024-04-19T12:08:42.467Z,9.00
2024-04-19T12:11:09.529Z,9.00
2024-04-19T12:14:23.540Z,9.00
2024-04-19T12:16:38.976Z,9.00
2024-04-19T12:19:11.994Z,9.00
2024-04-19T12:21:40.294Z,9.00
2024-04-19T12:24:07.893Z,9.00
2024-04-19T12:26:35.973Z,8.90
2024-04-19T12:29:03.326Z,9.00
2024-04-19T12:31:30.448Z,8.90
2024-04-19T12:33:57.271Z,9.00
2024-04-19T12:36:24.267Z,8.90
2024-04-19T12:38:51.269Z,8.90
2024-04-19T12:41:18.258Z,8.90
2024-04-19T12:43:45.307Z,8.90
2024-04-19T12:46:12.246Z,8.90
2024-04-19T12:48:39.316Z,8.90
2024-04-19T12:51:06.463Z,8.90
2024-04-19T12:53:33.224Z,8.90
2024-04-19T12:56:00.234Z,8.90
2024-04-19T12:58:27.390Z,8.90
2024-04-19T13:00:54.290Z,8.90
2024-04-19T13:03:21.593Z,8.90
2024-04-19T13:05:49.201Z,8.90
2024-04-19T13:08:16.145Z,8.90
2024-04-19T13:10:43.114Z,8.90
2024-04-19T13:13:14.184Z,8.80
2024-04-19T13:15:41.469Z,8.90
2024-04-19T13:18:08.600Z,8.80
2024-04-19T13:20:36.563Z,8.80
2024-04-19T13:23:03.447Z,8.80
2024-04-19T13:25:30.488Z,8.80
2024-04-19T13:27:57.357Z,8.80
2024-04-19T13:30:24.498Z,8.80
2024-04-19T13:32:51.730Z,8.90
2024-04-19T13:35:18.622Z,8.90
2024-04-19T13:37:45.465Z,8.80
2024-04-19T13:40:12.882Z,8.90
2024-04-19T13:42:39.779Z,8.90
2024-04-19T13:45:07.084Z,8.90
2024-04-19T13:47:34.248Z,9.00
2024-04-19T13:50:04.275Z,9.00
2024-04-19T13:52:31.184Z,9.00
2024-04-19T13:54:58.185Z,9.00
2024-04-19T13:57:25.464Z,9.00
2024-04-19T13:59:52.617Z,8.90
2024-04-19T14:02:19.506Z,8.90
2024-04-19T14:04:46.473Z,8.80
2024-04-19T14:07:13.395Z,8.90
2024-04-19T14:09:40.955Z,8.80
2024-04-19T14:12:08.066Z,8.90
2024-04-19T14:14:34.834Z,8.90
2024-04-19T14:17:01.888Z,8.80
2024-04-19T14:19:29.228Z,8.80
2024-04-19T14:21:56.210Z,8.80
2024-04-19T14:24:23.391Z,8.70
2024-04-19T14:26:51.428Z,8.80
2024-04-19T14:29:18.339Z,8.70
2024-04-19T14:31:45.299Z,8.70
2024-04-19T14:34:12.222Z,8.80
2024-04-19T14:36:39.005Z,8.80
2024-04-19T14:39:05.823Z,8.90
2024-04-19T14:41:32.653Z,8.80
2024-04-19T14:43:59.437Z,8.90
2024-04-19T14:46:26.543Z,8.90
2024-04-19T14:48:54.251Z,8.90
2024-04-19T14:51:21.458Z,9.00
2024-04-19T14:53:49.711Z,9.00
2024-04-19T14:56:21.967Z,8.90
2024-04-19T14:58:56.058Z,8.90
2024-04-19T15:01:30.454Z,8.90
2024-04-19T15:03:57.765Z,8.90
2024-04-19T15:06:24.764Z,8.90
2024-04-19T15:08:51.610Z,8.90
2024-04-19T15:11:18.553Z,8.90
2024-04-19T15:13:47.817Z,8.90
2024-04-19T15:16:15.004Z,8.90
2024-04-19T15:18:43.585Z,8.90
2024-04-19T15:21:10.394Z,8.90
2024-04-19T15:23:37.280Z,8.90
2024-04-19T15:26:04.229Z,8.90
2024-04-19T15:28:31.066Z,8.80
2024-04-19T15:30:58.181Z,8.90
2024-04-19T15:33:25.258Z,8.80
2024-04-19T15:35:52.224Z,8.90
2024-04-19T15:38:19.022Z,8.90
2024-04-19T15:40:46.006Z,8.90
2024-04-19T15:43:12.849Z,9.00
2024-04-19T15:45:40.969Z,9.00
2024-04-19T15:48:10.585Z,9.00
2024-04-19T15:50:38.298Z,9.00
2024-04-19T15:53:05.290Z,9.00
2024-04-19T15:55:32.144Z,9.00
2024-04-19T15:57:59.968Z,9.10
2024-04-19T16:00:27.026Z,9.10
2024-04-19T16:02:54.584Z,9.10
2024-04-19T16:05:21.465Z,9.10
2024-04-19T16:07:51.513Z,9.10
2024-04-19T16:10:18.723Z,9.00
2024-04-19T16:12:45.497Z,8.90
2024-04-19T16:15:12.410Z,8.90
2024-04-19T16:17:39.218Z,8.80
2024-04-19T16:20:09.161Z,8.80
2024-04-19T16:22:37.143Z,8.80
2024-04-19T16:25:04.466Z,8.80
2024-04-19T16:27:31.446Z,8.80
2024-04-19T16:29:58.341Z,8.70
2024-04-19T16:32:26.349Z,8.70
2024-04-19T16:34:53.230Z,8.70
2024-04-19T16:37:22.111Z,8.70
2024-04-19T16:39:50.934Z,8.70
2024-04-19T16:42:17.988Z,8.70
2024-04-19T16:44:51.158Z,8.60
2024-04-19T16:47:19.169Z,8.60
2024-04-19T16:49:46.128Z,8.60
2024-04-19T16:52:13.193Z,8.50
2024-04-19T16:54:40.117Z,8.50
2024-04-19T16:57:06.941Z,8.50
2024-04-19T16:59:33.672Z,8.40
2024-04-19T17:02:05.527Z,8.40
2024-04-19T17:04:33.007Z,8.40
2024-04-19T17:06:59.960Z,8.40
2024-04-19T17:09:26.786Z,8.40
2024-04-19T17:11:55.604Z,8.50
2024-04-19T17:14:22.458Z,8.50
2024-04-19T17:16:49.475Z,8.50
2024-04-19T17:19:17.298Z,8.50
2024-04-19T17:21:46.076Z,8.50
2024-04-19T17:24:13.717Z,8.50
2024-04-19T17:26:40.680Z,8.50
2024-04-19T17:29:07.491Z,8.50
2024-04-19T17:31:34.285Z,8.50
2024-04-19T17:34:01.334Z,8.50
2024-04-19T17:36:28.173Z,8.60
2024-04-19T17:38:55.003Z,8.60
2024-04-19T17:41:21.790Z,8.60
2024-04-19T17:43:48.541Z,8.60
2024-04-19T17:46:15.362Z,8.50
2024-04-19T17:48:42.223Z,8.60
2024-04-19T17:51:09.200Z,8.60
2024-04-19T17:53:36.158Z,8.60
2024-04-19T17:56:04.117Z,8.60
2024-04-19T17:58:30.938Z,8.60
2024-04-19T18:00:57.805Z,8.50
2024-04-19T18:03:25.086Z,8.60
2024-04-19T18:05:52.003Z,8.60
2024-04-19T18:08:18.822Z,8.50
2024-04-19T18:10:45.981Z,8.50
2024-04-19T18:13:13.061Z,8.50
2024-04-19T18:15:40.000Z,8.50
2024-04-19T18:18:07.352Z,8.50
2024-04-19T18:20:34.612Z,8.40
2024-04-19T18:23:01.550Z,8.40
2024-04-19T18:25:28.631Z,8.40
2024-04-19T18:27:55.569Z,8.40
2024-04-19T18:30:22.384Z,8.40
2024-04-19T18:32:49.251Z,8.30
2024-04-19T18:35:16.146Z,8.30
2024-04-19T18:37:43.763Z,8.30
2024-04-19T18:40:11.143Z,8.30
2024-04-19T18:42:37.965Z,8.30
2024-04-19T18:45:05.021Z,8.30
2024-04-19T18:47:31.853Z,8.30
2024-04-19T18:49:58.673Z,8.30
2024-04-19T18:52:25.460Z,8.30
2024-04-19T18:54:52.330Z,8.30
2024-04-19T18:57:19.195Z,8.30
2024-04-19T18:59:46.699Z,8.30
2024-04-19T19:02:13.568Z,8.30
2024-04-19T19:04:40.487Z,8.30
2024-04-19T19:07:08.455Z,8.30
2024-04-19T19:09:37.045Z,8.30
2024-04-19T19:12:04.634Z,8.30
2024-04-19T19:14:34.091Z,8.20
2024-04-19T19:17:02.691Z,8.30
2024-04-19T19:19:29.743Z,8.30
2024-04-19T19:21:56.749Z,8.30
2024-04-19T19:24:25.150Z,8.30
2024-04-19T19:26:52.039Z,8.20
2024-04-19T19:29:23.433Z,8.20
2024-04-19T19:31:50.538Z,8.10
2024-04-19T19:34:17.381Z,8.10
2024-04-19T19:36:45.568Z,8.10
2024-04-19T19:39:12.645Z,8.10
2024-04-19T19:41:39.398Z,8.10
2024-04-19T19:44:06.626Z,8.00
2024-04-19T19:46:33.457Z,8.00
2024-04-19T19:49:00.439Z,8.00
2024-04-19T19:51:27.395Z,7.90
2024-04-19T19:53:54.406Z,7.90
2024-04-19T19:56:21.381Z,7.80
2024-04-19T19:58:49.525Z,7.80
2024-04-19T20:01:35.661Z,7.80
2024-04-19T20:04:21.438Z,7.80
2024-04-19T20:06:50.787Z,7.80
2024-04-19T20:09:21.104Z,7.80
2024-04-19T20:11:50.162Z,7.80
2024-04-19T20:14:17.059Z,7.80
2024-04-19T20:16:43.875Z,7.80
2024-04-19T20:19:10.759Z,7.80
2024-04-19T20:21:37.761Z,7.80
2024-04-19T20:24:04.694Z,7.80
2024-04-19T20:26:31.591Z,7.80
2024-04-19T20:29:01.604Z,7.80
2024-04-19T20:31:28.456Z,7.80
2024-04-19T20:33:56.353Z,7.80
2024-04-19T20:36:23.262Z,7.80
2024-04-19T20:38:50.171Z,7.70
2024-04-19T20:41:18.547Z,7.70
2024-04-19T20:43:45.342Z,7.80
2024-04-19T20:46:12.138Z,7.80
2024-04-19T20:48:40.407Z,7.80
2024-04-19T20:51:07.677Z,7.80
2024-04-19T20:53:34.628Z,7.80
2024-04-19T20:56:03.465Z,7.80
2024-04-19T20:58:30.244Z,7.80
2024-04-19T21:00:57.182Z,7.80
2024-04-19T21:03:24.115Z,7.80
2024-04-19T21:05:50.901Z,7.80
2024-04-19T21:08:18.356Z,7.80
2024-04-19T21:10:45.552Z,7.90
2024-04-19T21:13:12.927Z,7.80
2024-04-19T21:15:39.962Z,7.80
2024-04-19T21:18:07.061Z,7.80
2024-04-19T21:20:36.138Z,7.80
2024-04-19T21:23:03.453Z,7.80
2024-04-19T21:25:30.338Z,7.80
2024-04-19T21:27:57.649Z,7.90
2024-04-19T21:30:25.610Z,7.90
2024-04-19T21:32:52.774Z,7.90
2024-04-19T21:35:19.590Z,7.90
2024-04-19T21:37:46.768Z,7.90
2024-04-19T21:40:14.696Z,7.90
2024-04-19T21:42:42.039Z,7.90
2024-04-19T21:45:09.933Z,7.90
2024-04-19T21:47:36.810Z,8.00
2024-04-19T21:50:03.791Z,8.00
2024-04-19T21:52:30.629Z,8.10
2024-04-19T21:54:57.654Z,8.10
2024-04-19T21:57:24.555Z,8.00
2024-04-19T21:59:51.390Z,8.00
2024-04-19T22:02:19.180Z,8.00
2024-04-19T22:04:50.616Z,8.00
2024-04-19T22:07:18.250Z,8.00
2024-04-19T22:09:45.982Z,8.00
2024-04-19T22:12:13.219Z,8.00
2024-04-19T22:14:39.991Z,8.00
2024-04-19T22:17:08.262Z,8.00
2024-04-19T22:19:35.404Z,7.90
2024-04-19T22:22:02.274Z,7.90
2024-04-19T22:24:30.472Z,7.80
2024-04-19T22:26:57.336Z,7.90
2024-04-19T22:29:24.249Z,7.80
2024-04-19T22:31:55.303Z,7.80
2024-04-19T22:34:22.318Z,7.80
2024-04-19T22:36:49.280Z,7.80
2024-04-19T22:39:16.968Z,7.80
2024-04-19T22:41:43.866Z,7.80
2024-04-19T22:44:10.625Z,7.90
2024-04-19T22:46:37.399Z,7.80
2024-04-19T22:49:04.505Z,7.80
2024-04-19T22:51:31.459Z,7.80
2024-04-19T22:53:58.248Z,7.80
2024-04-19T22:56:25.093Z,7.80
2024-04-19T22:58:51.836Z,7.80
2024-04-19T23:01:20.894Z,7.80
2024-04-19T23:03:48.013Z,7.80
2024-04-19T23:06:15.737Z,7.70
2024-04-19T23:08:42.603Z,7.70
2024-04-19T23:11:10.501Z,7.60
2024-04-19T23:13:37.537Z,7.50
2024-04-19T23:16:04.969Z,7.50
2024-04-19T23:18:31.898Z,7.40
2024-04-19T23:20:59.986Z,7.30
2024-04-19T23:23:27.578Z,7.20
2024-04-19T23:26:04.031Z,7.00
2024-04-19T23:28:32.597Z,7.00
2024-04-19T23:31:00.547Z,6.80
2024-04-19T23:33:31.766Z,6.80
2024-04-19T23:36:00.000Z,6.80
2024-04-19T23:38:27.642Z,6.80
2024-04-19T23:40:55.717Z,6.90
2024-04-19T23:43:22.685Z,7.00
2024-04-19T23:45:50.248Z,7.00
2024-04-19T23:48:17.369Z,7.10
2024-04-19T23:50:44.211Z,7.10
2024-04-19T23:53:11.002Z,7.20
2024-04-19T23:55:37.804Z,7.10
2024-04-19T23:58:04.904Z,7.00
